sensor_id;sensor_type;location;lat;lon;timestamp;P1;durP1;ratioP1;P2;durP2;ratioP2
58460;SDS011;45558;37.752;-97.822;2022-07-30T00:01:12;1.73;;;0.40;;
58460;SDS011;45558;37.752;-97.822;2022-07-30T00:03:38;0.65;;;0.40;;
58460;SDS011;45558;37.752;-97.822;2022-07-30T00:06:04;3.45;;;0.45;;
58460;SDS011;45558;37.752;-97.822;2022-07-30T00:08:30;0.98;;;0.45;;
58460;SDS011;45558;37.752;-97.822;2022-07-30T00:10:55;4.53;;;0.75;;
58460;SDS011;45558;37.752;-97.822;2022-07-30T00:13:21;0.75;;;0.50;;
58460;SDS011;45558;37.752;-97.822;2022-07-30T00:15:47;1.38;;;0.40;;
58460;SDS011;45558;37.752;-97.822;2022-07-30T00:18:13;1.38;;;0.63;;
58460;SDS011;45558;37.752;-97.822;2022-07-30T00:20:38;2.63;;;0.45;;
58460;SDS011;45558;37.752;-97.822;2022-07-30T00:23:04;1.30;;;0.50;;
58460;SDS011;45558;37.752;-97.822;2022-07-30T00:25:30;1.63;;;0.70;;
58460;SDS011;45558;37.752;-97.822;2022-07-30T00:27:56;0.77;;;0.55;;
58460;SDS011;45558;37.752;-97.822;2022-07-30T00:30:22;1.05;;;0.50;;
58460;SDS011;45558;37.752;-97.822;2022-07-30T00:32:48;2.00;;;0.70;;
58460;SDS011;45558;37.752;-97.822;2022-07-30T00:35:14;1.67;;;0.60;;
58460;SDS011;45558;37.752;-97.822;2022-07-30T00:37:40;1.95;;;0.60;;
58460;SDS011;45558;37.752;-97.822;2022-07-30T00:40:06;2.72;;;0.73;;
58460;SDS011;45558;37.752;-97.822;2022-07-30T00:42:39;0.43;;;0.40;;
58460;SDS011;45558;37.752;-97.822;2022-07-30T00:45:06;0.80;;;0.50;;
58460;SDS011;45558;37.752;-97.822;2022-07-30T00:47:32;2.05;;;0.43;;
58460;SDS011;45558;37.752;-97.822;2022-07-30T00:49:58;2.08;;;0.47;;
58460;SDS011;45558;37.752;-97.822;2022-07-30T00:52:23;1.20;;;0.52;;
58460;SDS011;45558;37.752;-97.822;2022-07-30T00:54:49;1.80;;;0.60;;
58460;SDS011;45558;37.752;-97.822;2022-07-30T00:57:15;2.65;;;0.70;;
58460;SDS011;45558;37.752;-97.822;2022-07-30T00:59:40;1.50;;;0.50;;
58460;SDS011;45558;37.752;-97.822;2022-07-30T01:02:07;2.28;;;0.45;;
58460;SDS011;45558;37.752;-97.822;2022-07-30T01:04:34;1.52;;;0.45;;
58460;SDS011;45558;37.752;-97.822;2022-07-30T01:07:00;1.40;;;0.50;;
58460;SDS011;45558;37.752;-97.822;2022-07-30T01:09:26;1.77;;;0.50;;
58460;SDS011;45558;37.752;-97.822;2022-07-30T01:11:52;1.65;;;0.52;;
58460;SDS011;45558;37.752;-97.822;2022-07-30T01:14:20;1.48;;;0.60;;
58460;SDS011;45558;37.752;-97.822;2022-07-30T01:16:46;0.80;;;0.40;;
58460;SDS011;45558;37.752;-97.822;2022-07-30T01:19:14;1.63;;;0.60;;
58460;SDS011;45558;37.752;-97.822;2022-07-30T01:22:57;2.15;;;0.75;;
58460;SDS011;45558;37.752;-97.822;2022-07-30T01:24:56;1.20;;;0.47;;
58460;SDS011;45558;37.752;-97.822;2022-07-30T01:27:30;1.10;;;0.70;;
58460;SDS011;45558;37.752;-97.822;2022-07-30T01:30:07;3.22;;;0.85;;
58460;SDS011;45558;37.752;-97.822;2022-07-30T01:32:34;2.05;;;0.90;;
58460;SDS011;45558;37.752;-97.822;2022-07-30T01:35:01;3.42;;;0.95;;
58460;SDS011;45558;37.752;-97.822;2022-07-30T01:37:28;3.08;;;0.90;;
58460;SDS011;45558;37.752;-97.822;2022-07-30T01:39:54;2.33;;;0.82;;
58460;SDS011;45558;37.752;-97.822;2022-07-30T01:42:21;3.88;;;1.20;;
58460;SDS011;45558;37.752;-97.822;2022-07-30T01:44:49;3.22;;;1.10;;
58460;SDS011;45558;37.752;-97.822;2022-07-30T01:50:36;1.75;;;0.93;;
58460;SDS011;45558;37.752;-97.822;2022-07-30T01:53:02;3.00;;;1.15;;
58460;SDS011;45558;37.752;-97.822;2022-07-30T01:55:33;5.47;;;1.20;;
58460;SDS011;45558;37.752;-97.822;2022-07-30T01:58:00;2.70;;;1.17;;
58460;SDS011;45558;37.752;-97.822;2022-07-30T02:00:28;4.93;;;1.33;;
58460;SDS011;45558;37.752;-97.822;2022-07-30T02:02:58;4.03;;;1.33;;
58460;SDS011;45558;37.752;-97.822;2022-07-30T02:05:24;3.20;;;1.00;;
58460;SDS011;45558;37.752;-97.822;2022-07-30T02:07:53;2.47;;;1.30;;
58460;SDS011;45558;37.752;-97.822;2022-07-30T02:10:28;3.85;;;1.20;;
58460;SDS011;45558;37.752;-97.822;2022-07-30T02:12:57;3.45;;;1.27;;
58460;SDS011;45558;37.752;-97.822;2022-07-30T02:15:31;4.50;;;1.30;;
58460;SDS011;45558;37.752;-97.822;2022-07-30T02:18:03;3.05;;;0.88;;
58460;SDS011;45558;37.752;-97.822;2022-07-30T02:21:03;2.55;;;1.20;;
58460;SDS011;45558;37.752;-97.822;2022-07-30T02:23:31;1.50;;;1.08;;
58460;SDS011;45558;37.752;-97.822;2022-07-30T02:26:01;2.45;;;1.10;;
58460;SDS011;45558;37.752;-97.822;2022-07-30T02:28:28;1.50;;;1.10;;
58460;SDS011;45558;37.752;-97.822;2022-07-30T02:30:55;2.88;;;1.15;;
58460;SDS011;45558;37.752;-97.822;2022-07-30T02:33:25;2.13;;;1.20;;
58460;SDS011;45558;37.752;-97.822;2022-07-30T02:35:53;1.50;;;1.33;;
58460;SDS011;45558;37.752;-97.822;2022-07-30T02:38:20;4.70;;;1.50;;
58460;SDS011;45558;37.752;-97.822;2022-07-30T02:40:47;3.20;;;1.50;;
58460;SDS011;45558;37.752;-97.822;2022-07-30T02:43:13;2.47;;;1.52;;
58460;SDS011;45558;37.752;-97.822;2022-07-30T02:45:40;4.63;;;2.03;;
58460;SDS011;45558;37.752;-97.822;2022-07-30T02:48:06;3.50;;;1.52;;
58460;SDS011;45558;37.752;-97.822;2022-07-30T02:50:33;2.90;;;1.70;;
58460;SDS011;45558;37.752;-97.822;2022-07-30T02:53:00;3.25;;;1.80;;
58460;SDS011;45558;37.752;-97.822;2022-07-30T02:55:29;5.22;;;2.00;;
58460;SDS011;45558;37.752;-97.822;2022-07-30T02:57:55;3.47;;;1.92;;
58460;SDS011;45558;37.752;-97.822;2022-07-30T03:00:22;3.20;;;1.88;;
58460;SDS011;45558;37.752;-97.822;2022-07-30T03:02:50;2.90;;;2.10;;
58460;SDS011;45558;37.752;-97.822;2022-07-30T03:05:17;4.63;;;2.20;;
58460;SDS011;45558;37.752;-97.822;2022-07-30T03:07:43;2.45;;;1.65;;
58460;SDS011;45558;37.752;-97.822;2022-07-30T03:10:10;3.25;;;1.88;;
58460;SDS011;45558;37.752;-97.822;2022-07-30T03:12:37;5.60;;;2.08;;
58460;SDS011;45558;37.752;-97.822;2022-07-30T03:15:05;3.53;;;1.95;;
58460;SDS011;45558;37.752;-97.822;2022-07-30T03:17:33;3.47;;;2.10;;
58460;SDS011;45558;37.752;-97.822;2022-07-30T03:20:02;3.08;;;2.33;;
58460;SDS011;45558;37.752;-97.822;2022-07-30T03:22:32;3.22;;;2.08;;
58460;SDS011;45558;37.752;-97.822;2022-07-30T03:28:22;6.18;;;2.85;;
58460;SDS011;45558;37.752;-97.822;2022-07-30T03:30:49;5.00;;;2.55;;
58460;SDS011;45558;37.752;-97.822;2022-07-30T03:33:16;4.35;;;2.53;;
58460;SDS011;45558;37.752;-97.822;2022-07-30T03:35:42;4.18;;;2.80;;
58460;SDS011;45558;37.752;-97.822;2022-07-30T03:38:11;2.78;;;1.95;;
58460;SDS011;45558;37.752;-97.822;2022-07-30T03:40:38;2.50;;;2.10;;
58460;SDS011;45558;37.752;-97.822;2022-07-30T03:43:06;3.17;;;1.75;;
58460;SDS011;45558;37.752;-97.822;2022-07-30T03:45:33;2.40;;;1.77;;
58460;SDS011;45558;37.752;-97.822;2022-07-30T03:48:00;2.80;;;1.63;;
58460;SDS011;45558;37.752;-97.822;2022-07-30T03:50:27;3.83;;;1.80;;
58460;SDS011;45558;37.752;-97.822;2022-07-30T03:52:53;3.80;;;1.45;;
58460;SDS011;45558;37.752;-97.822;2022-07-30T03:55:20;2.80;;;1.58;;
58460;SDS011;45558;37.752;-97.822;2022-07-30T03:57:46;2.30;;;1.67;;
58460;SDS011;45558;37.752;-97.822;2022-07-30T04:00:13;1.95;;;1.50;;
58460;SDS011;45558;37.752;-97.822;2022-07-30T04:02:44;2.08;;;1.80;;
58460;SDS011;45558;37.752;-97.822;2022-07-30T04:05:11;2.45;;;1.48;;
58460;SDS011;45558;37.752;-97.822;2022-07-30T04:07:37;5.88;;;2.42;;
58460;SDS011;45558;37.752;-97.822;2022-07-30T04:10:03;3.90;;;2.10;;
58460;SDS011;45558;37.752;-97.822;2022-07-30T04:12:29;3.28;;;2.20;;
58460;SDS011;45558;37.752;-97.822;2022-07-30T04:14:55;2.85;;;1.83;;
58460;SDS011;45558;37.752;-97.822;2022-07-30T04:17:26;4.60;;;2.40;;
58460;SDS011;45558;37.752;-97.822;2022-07-30T04:20:26;3.33;;;2.30;;
58460;SDS011;45558;37.752;-97.822;2022-07-30T04:22:52;3.33;;;2.40;;
58460;SDS011;45558;37.752;-97.822;2022-07-30T04:25:18;3.58;;;2.22;;
58460;SDS011;45558;37.752;-97.822;2022-07-30T04:31:06;5.32;;;2.80;;
58460;SDS011;45558;37.752;-97.822;2022-07-30T04:33:32;3.10;;;2.40;;
58460;SDS011;45558;37.752;-97.822;2022-07-30T04:35:58;4.10;;;2.70;;
58460;SDS011;45558;37.752;-97.822;2022-07-30T04:38:24;4.18;;;2.65;;
58460;SDS011;45558;37.752;-97.822;2022-07-30T04:40:49;5.78;;;2.58;;
58460;SDS011;45558;37.752;-97.822;2022-07-30T04:43:16;6.28;;;2.75;;
58460;SDS011;45558;37.752;-97.822;2022-07-30T04:45:41;4.97;;;3.03;;
58460;SDS011;45558;37.752;-97.822;2022-07-30T04:48:07;3.28;;;2.70;;
58460;SDS011;45558;37.752;-97.822;2022-07-30T04:50:33;3.95;;;2.30;;
58460;SDS011;45558;37.752;-97.822;2022-07-30T04:53:00;5.35;;;3.13;;
58460;SDS011;45558;37.752;-97.822;2022-07-30T04:55:27;6.28;;;3.22;;
58460;SDS011;45558;37.752;-97.822;2022-07-30T04:57:53;3.85;;;2.65;;
58460;SDS011;45558;37.752;-97.822;2022-07-30T05:00:19;6.13;;;2.72;;
58460;SDS011;45558;37.752;-97.822;2022-07-30T05:02:46;6.00;;;3.22;;
58460;SDS011;45558;37.752;-97.822;2022-07-30T05:05:13;5.78;;;3.35;;
58460;SDS011;45558;37.752;-97.822;2022-07-30T05:07:41;4.88;;;3.10;;
58460;SDS011;45558;37.752;-97.822;2022-07-30T05:10:08;5.38;;;3.03;;
58460;SDS011;45558;37.752;-97.822;2022-07-30T05:12:35;8.35;;;4.03;;
58460;SDS011;45558;37.752;-97.822;2022-07-30T05:15:02;6.03;;;3.45;;
58460;SDS011;45558;37.752;-97.822;2022-07-30T05:17:29;7.72;;;3.67;;
58460;SDS011;45558;37.752;-97.822;2022-07-30T05:19:55;5.50;;;3.50;;
58460;SDS011;45558;37.752;-97.822;2022-07-30T05:22:21;10.88;;;3.63;;
58460;SDS011;45558;37.752;-97.822;2022-07-30T05:24:46;6.18;;;3.72;;
58460;SDS011;45558;37.752;-97.822;2022-07-30T05:27:12;7.22;;;3.90;;
58460;SDS011;45558;37.752;-97.822;2022-07-30T05:29:38;7.40;;;3.63;;
58460;SDS011;45558;37.752;-97.822;2022-07-30T05:32:04;6.00;;;3.25;;
58460;SDS011;45558;37.752;-97.822;2022-07-30T05:34:29;5.85;;;3.70;;
58460;SDS011;45558;37.752;-97.822;2022-07-30T05:36:55;5.60;;;3.70;;
58460;SDS011;45558;37.752;-97.822;2022-07-30T05:39:21;5.40;;;3.85;;
58460;SDS011;45558;37.752;-97.822;2022-07-30T05:41:47;5.85;;;4.00;;
58460;SDS011;45558;37.752;-97.822;2022-07-30T05:44:13;6.97;;;3.30;;
58460;SDS011;45558;37.752;-97.822;2022-07-30T05:46:39;5.63;;;3.40;;
58460;SDS011;45558;37.752;-97.822;2022-07-30T05:49:04;5.18;;;3.67;;
58460;SDS011;45558;37.752;-97.822;2022-07-30T05:51:30;4.35;;;3.22;;
58460;SDS011;45558;37.752;-97.822;2022-07-30T05:53:56;8.63;;;3.70;;
58460;SDS011;45558;37.752;-97.822;2022-07-30T05:56:21;7.68;;;3.60;;
58460;SDS011;45558;37.752;-97.822;2022-07-30T05:58:47;4.35;;;3.40;;
58460;SDS011;45558;37.752;-97.822;2022-07-30T06:01:13;4.43;;;3.20;;
58460;SDS011;45558;37.752;-97.822;2022-07-30T06:03:39;7.13;;;3.42;;
58460;SDS011;45558;37.752;-97.822;2022-07-30T06:06:05;5.20;;;3.38;;
58460;SDS011;45558;37.752;-97.822;2022-07-30T06:08:32;5.65;;;3.40;;
58460;SDS011;45558;37.752;-97.822;2022-07-30T06:10:57;7.30;;;3.50;;
58460;SDS011;45558;37.752;-97.822;2022-07-30T06:13:23;7.85;;;3.42;;
58460;SDS011;45558;37.752;-97.822;2022-07-30T06:15:49;3.78;;;3.05;;
58460;SDS011;45558;37.752;-97.822;2022-07-30T06:18:16;4.03;;;3.28;;
58460;SDS011;45558;37.752;-97.822;2022-07-30T06:20:42;5.82;;;3.47;;
58460;SDS011;45558;37.752;-97.822;2022-07-30T06:23:08;8.85;;;3.17;;
58460;SDS011;45558;37.752;-97.822;2022-07-30T06:25:34;5.70;;;3.30;;
58460;SDS011;45558;37.752;-97.822;2022-07-30T06:28:00;5.90;;;3.05;;
58460;SDS011;45558;37.752;-97.822;2022-07-30T06:30:26;5.93;;;3.80;;
58460;SDS011;45558;37.752;-97.822;2022-07-30T06:32:53;4.00;;;2.90;;
58460;SDS011;45558;37.752;-97.822;2022-07-30T06:35:21;6.15;;;3.92;;
58460;SDS011;45558;37.752;-97.822;2022-07-30T06:37:47;3.80;;;3.30;;
58460;SDS011;45558;37.752;-97.822;2022-07-30T06:40:12;4.05;;;3.08;;
58460;SDS011;45558;37.752;-97.822;2022-07-30T06:42:38;5.15;;;3.30;;
58460;SDS011;45558;37.752;-97.822;2022-07-30T06:45:04;4.90;;;3.28;;
58460;SDS011;45558;37.752;-97.822;2022-07-30T06:47:30;7.90;;;3.15;;
58460;SDS011;45558;37.752;-97.822;2022-07-30T06:49:59;3.72;;;2.70;;
58460;SDS011;45558;37.752;-97.822;2022-07-30T06:52:25;4.10;;;3.33;;
58460;SDS011;45558;37.752;-97.822;2022-07-30T06:58:13;3.80;;;2.60;;
58460;SDS011;45558;37.752;-97.822;2022-07-30T07:00:39;4.55;;;3.22;;
58460;SDS011;45558;37.752;-97.822;2022-07-30T07:03:05;6.50;;;2.60;;
58460;SDS011;45558;37.752;-97.822;2022-07-30T07:05:30;4.75;;;2.92;;
58460;SDS011;45558;37.752;-97.822;2022-07-30T07:07:56;3.63;;;3.05;;
58460;SDS011;45558;37.752;-97.822;2022-07-30T07:10:22;5.93;;;3.47;;
58460;SDS011;45558;37.752;-97.822;2022-07-30T07:12:48;4.93;;;2.90;;
58460;SDS011;45558;37.752;-97.822;2022-07-30T07:15:14;4.95;;;3.00;;
58460;SDS011;45558;37.752;-97.822;2022-07-30T07:17:40;4.10;;;2.92;;
58460;SDS011;45558;37.752;-97.822;2022-07-30T07:20:06;3.72;;;3.10;;
58460;SDS011;45558;37.752;-97.822;2022-07-30T07:22:32;3.78;;;2.75;;
58460;SDS011;45558;37.752;-97.822;2022-07-30T07:24:58;3.65;;;2.67;;
58460;SDS011;45558;37.752;-97.822;2022-07-30T07:27:24;8.30;;;3.50;;
58460;SDS011;45558;37.752;-97.822;2022-07-30T07:29:50;4.63;;;2.90;;
58460;SDS011;45558;37.752;-97.822;2022-07-30T07:32:15;6.32;;;3.00;;
58460;SDS011;45558;37.752;-97.822;2022-07-30T07:38:03;6.53;;;3.78;;
58460;SDS011;45558;37.752;-97.822;2022-07-30T07:40:29;10.98;;;4.03;;
58460;SDS011;45558;37.752;-97.822;2022-07-30T07:42:55;9.52;;;3.85;;
58460;SDS011;45558;37.752;-97.822;2022-07-30T07:45:21;5.47;;;3.88;;
58460;SDS011;45558;37.752;-97.822;2022-07-30T07:47:47;4.60;;;3.58;;
58460;SDS011;45558;37.752;-97.822;2022-07-30T07:53:36;11.15;;;5.50;;
58460;SDS011;45558;37.752;-97.822;2022-07-30T07:59:24;8.70;;;3.78;;
58460;SDS011;45558;37.752;-97.822;2022-07-30T08:01:50;10.07;;;3.83;;
58460;SDS011;45558;37.752;-97.822;2022-07-30T08:04:16;4.35;;;3.75;;
58460;SDS011;45558;37.752;-97.822;2022-07-30T08:06:43;5.75;;;4.00;;
58460;SDS011;45558;37.752;-97.822;2022-07-30T08:09:09;5.05;;;3.95;;
58460;SDS011;45558;37.752;-97.822;2022-07-30T08:11:34;5.97;;;4.22;;
58460;SDS011;45558;37.752;-97.822;2022-07-30T08:14:01;8.43;;;3.90;;
58460;SDS011;45558;37.752;-97.822;2022-07-30T08:16:27;5.53;;;3.72;;
58460;SDS011;45558;37.752;-97.822;2022-07-30T08:18:53;6.70;;;4.57;;
58460;SDS011;45558;37.752;-97.822;2022-07-30T08:21:18;7.40;;;4.75;;
58460;SDS011;45558;37.752;-97.822;2022-07-30T08:23:44;6.30;;;4.65;;
58460;SDS011;45558;37.752;-97.822;2022-07-30T08:26:10;7.88;;;4.35;;
58460;SDS011;45558;37.752;-97.822;2022-07-30T08:31:58;7.10;;;4.65;;
58460;SDS011;45558;37.752;-97.822;2022-07-30T08:34:24;9.00;;;4.50;;
58460;SDS011;45558;37.752;-97.822;2022-07-30T08:36:50;6.60;;;4.97;;
58460;SDS011;45558;37.752;-97.822;2022-07-30T08:39:15;8.98;;;4.88;;
58460;SDS011;45558;37.752;-97.822;2022-07-30T08:41:41;6.35;;;5.00;;
58460;SDS011;45558;37.752;-97.822;2022-07-30T08:44:09;6.93;;;4.53;;
58460;SDS011;45558;37.752;-97.822;2022-07-30T08:46:37;6.30;;;5.03;;
58460;SDS011;45558;37.752;-97.822;2022-07-30T08:49:05;8.90;;;4.68;;
58460;SDS011;45558;37.752;-97.822;2022-07-30T08:51:32;11.80;;;5.15;;
58460;SDS011;45558;37.752;-97.822;2022-07-30T08:53:58;6.60;;;3.88;;
58460;SDS011;45558;37.752;-97.822;2022-07-30T08:56:25;5.55;;;4.07;;
58460;SDS011;45558;37.752;-97.822;2022-07-30T08:58:52;4.90;;;3.60;;
58460;SDS011;45558;37.752;-97.822;2022-07-30T09:01:19;5.00;;;3.70;;
58460;SDS011;45558;37.752;-97.822;2022-07-30T09:03:46;5.07;;;3.85;;
58460;SDS011;45558;37.752;-97.822;2022-07-30T09:06:12;4.80;;;3.50;;
58460;SDS011;45558;37.752;-97.822;2022-07-30T09:08:40;6.20;;;3.45;;
58460;SDS011;45558;37.752;-97.822;2022-07-30T09:11:07;5.60;;;3.75;;
58460;SDS011;45558;37.752;-97.822;2022-07-30T09:13:34;8.35;;;3.90;;
58460;SDS011;45558;37.752;-97.822;2022-07-30T09:16:02;4.03;;;3.42;;
58460;SDS011;45558;37.752;-97.822;2022-07-30T09:18:30;4.82;;;3.58;;
58460;SDS011;45558;37.752;-97.822;2022-07-30T09:20:58;3.50;;;3.20;;
58460;SDS011;45558;37.752;-97.822;2022-07-30T09:23:25;6.68;;;3.70;;
58460;SDS011;45558;37.752;-97.822;2022-07-30T09:25:51;10.25;;;3.63;;
58460;SDS011;45558;37.752;-97.822;2022-07-30T09:31:51;5.00;;;3.50;;
58460;SDS011;45558;37.752;-97.822;2022-07-30T09:34:30;4.38;;;3.75;;
58460;SDS011;45558;37.752;-97.822;2022-07-30T09:37:01;4.45;;;3.22;;
58460;SDS011;45558;37.752;-97.822;2022-07-30T09:39:39;4.22;;;3.13;;
58460;SDS011;45558;37.752;-97.822;2022-07-30T09:45:06;6.95;;;3.05;;
58460;SDS011;45558;37.752;-97.822;2022-07-30T09:47:34;3.03;;;2.53;;
58460;SDS011;45558;37.752;-97.822;2022-07-30T09:50:06;7.40;;;3.08;;
58460;SDS011;45558;37.752;-97.822;2022-07-30T09:52:34;4.32;;;3.13;;
58460;SDS011;45558;37.752;-97.822;2022-07-30T09:55:01;7.43;;;3.35;;
58460;SDS011;45558;37.752;-97.822;2022-07-30T09:57:27;4.68;;;3.58;;
58460;SDS011;45558;37.752;-97.822;2022-07-30T09:59:54;4.65;;;2.95;;
58460;SDS011;45558;37.752;-97.822;2022-07-30T10:02:27;7.80;;;2.78;;
58460;SDS011;45558;37.752;-97.822;2022-07-30T10:07:38;3.72;;;2.58;;
58460;SDS011;45558;37.752;-97.822;2022-07-30T10:10:04;5.90;;;2.53;;
58460;SDS011;45558;37.752;-97.822;2022-07-30T10:12:31;3.83;;;2.47;;
58460;SDS011;45558;37.752;-97.822;2022-07-30T10:18:19;3.33;;;2.38;;
58460;SDS011;45558;37.752;-97.822;2022-07-30T10:20:46;4.85;;;2.45;;
58460;SDS011;45558;37.752;-97.822;2022-07-30T10:23:12;2.42;;;2.22;;
58460;SDS011;45558;37.752;-97.822;2022-07-30T10:25:38;2.90;;;2.60;;
58460;SDS011;45558;37.752;-97.822;2022-07-30T10:28:04;4.55;;;2.42;;
58460;SDS011;45558;37.752;-97.822;2022-07-30T10:30:31;7.55;;;3.08;;
58460;SDS011;45558;37.752;-97.822;2022-07-30T10:32:57;3.35;;;2.72;;
58460;SDS011;45558;37.752;-97.822;2022-07-30T10:35:25;3.05;;;2.00;;
58460;SDS011;45558;37.752;-97.822;2022-07-30T10:37:51;2.70;;;1.55;;
58460;SDS011;45558;37.752;-97.822;2022-07-30T10:40:25;2.42;;;1.63;;
58460;SDS011;45558;37.752;-97.822;2022-07-30T10:48:16;2.63;;;1.65;;
58460;SDS011;45558;37.752;-97.822;2022-07-30T10:50:53;5.00;;;1.80;;
58460;SDS011;45558;37.752;-97.822;2022-07-30T10:53:34;1.92;;;1.52;;
58460;SDS011;45558;37.752;-97.822;2022-07-30T10:58:59;2.95;;;1.20;;
58460;SDS011;45558;37.752;-97.822;2022-07-30T11:06:47;2.60;;;1.92;;
58460;SDS011;45558;37.752;-97.822;2022-07-30T11:15:23;2.28;;;1.40;;
58460;SDS011;45558;37.752;-97.822;2022-07-30T11:18:20;1.00;;;0.90;;
58460;SDS011;45558;37.752;-97.822;2022-07-30T11:23:44;4.28;;;2.03;;
58460;SDS011;45558;37.752;-97.822;2022-07-30T11:26:56;2.55;;;1.42;;
58460;SDS011;45558;37.752;-97.822;2022-07-30T11:29:02;2.33;;;1.38;;
58460;SDS011;45558;37.752;-97.822;2022-07-30T11:44:50;2.05;;;1.30;;
58460;SDS011;45558;37.752;-97.822;2022-07-30T11:47:16;2.65;;;0.75;;
58460;SDS011;45558;37.752;-97.822;2022-07-30T11:49:46;1.88;;;0.60;;
58460;SDS011;45558;37.752;-97.822;2022-07-30T11:52:20;1.75;;;1.23;;
58460;SDS011;45558;37.752;-97.822;2022-07-30T11:54:54;2.35;;;0.70;;
58460;SDS011;45558;37.752;-97.822;2022-07-30T11:57:20;2.42;;;0.75;;
58460;SDS011;45558;37.752;-97.822;2022-07-30T12:00:07;2.83;;;0.70;;
58460;SDS011;45558;37.752;-97.822;2022-07-30T12:02:33;4.28;;;2.50;;
58460;SDS011;45558;37.752;-97.822;2022-07-30T12:04:59;3.13;;;2.33;;
58460;SDS011;45558;37.752;-97.822;2022-07-30T12:07:25;5.25;;;1.88;;
58460;SDS011;45558;37.752;-97.822;2022-07-30T12:09:51;1.80;;;0.90;;
58460;SDS011;45558;37.752;-97.822;2022-07-30T12:12:20;5.45;;;2.28;;
58460;SDS011;45558;37.752;-97.822;2022-07-30T12:14:48;2.67;;;1.08;;
58460;SDS011;45558;37.752;-97.822;2022-07-30T12:17:15;1.80;;;0.90;;
58460;SDS011;45558;37.752;-97.822;2022-07-30T12:19:45;5.32;;;2.42;;
58460;SDS011;45558;37.752;-97.822;2022-07-30T12:22:11;4.53;;;3.03;;
58460;SDS011;45558;37.752;-97.822;2022-07-30T12:24:37;3.63;;;1.95;;
58460;SDS011;45558;37.752;-97.822;2022-07-30T12:27:05;2.90;;;1.20;;
58460;SDS011;45558;37.752;-97.822;2022-07-30T12:29:34;1.25;;;1.00;;
58460;SDS011;45558;37.752;-97.822;2022-07-30T12:32:00;2.67;;;1.20;;
58460;SDS011;45558;37.752;-97.822;2022-07-30T12:34:27;1.65;;;1.10;;
58460;SDS011;45558;37.752;-97.822;2022-07-30T12:36:54;2.75;;;1.40;;
58460;SDS011;45558;37.752;-97.822;2022-07-30T12:39:21;3.97;;;1.38;;
58460;SDS011;45558;37.752;-97.822;2022-07-30T12:41:50;2.85;;;1.00;;
58460;SDS011;45558;37.752;-97.822;2022-07-30T12:47:04;1.13;;;0.80;;
58460;SDS011;45558;37.752;-97.822;2022-07-30T12:49:30;3.08;;;0.80;;
58460;SDS011;45558;37.752;-97.822;2022-07-30T12:51:57;2.17;;;1.10;;
58460;SDS011;45558;37.752;-97.822;2022-07-30T12:54:25;1.65;;;0.90;;
58460;SDS011;45558;37.752;-97.822;2022-07-30T12:57:01;2.47;;;0.80;;
58460;SDS011;45558;37.752;-97.822;2022-07-30T12:59:31;1.52;;;0.90;;
58460;SDS011;45558;37.752;-97.822;2022-07-30T13:01:59;0.88;;;0.60;;
58460;SDS011;45558;37.752;-97.822;2022-07-30T13:04:25;2.03;;;0.68;;
58460;SDS011;45558;37.752;-97.822;2022-07-30T13:07:04;0.60;;;0.50;;
58460;SDS011;45558;37.752;-97.822;2022-07-30T13:09:37;1.42;;;0.98;;
58460;SDS011;45558;37.752;-97.822;2022-07-30T13:12:04;2.58;;;1.10;;
58460;SDS011;45558;37.752;-97.822;2022-07-30T13:14:32;1.55;;;0.70;;
58460;SDS011;45558;37.752;-97.822;2022-07-30T13:20:21;1.48;;;0.80;;
58460;SDS011;45558;37.752;-97.822;2022-07-30T13:22:47;2.60;;;0.93;;
58460;SDS011;45558;37.752;-97.822;2022-07-30T13:25:13;1.33;;;0.73;;
58460;SDS011;45558;37.752;-97.822;2022-07-30T13:27:40;2.15;;;0.73;;
58460;SDS011;45558;37.752;-97.822;2022-07-30T13:30:06;1.42;;;0.80;;
58460;SDS011;45558;37.752;-97.822;2022-07-30T13:32:33;0.80;;;0.80;;
58460;SDS011;45558;37.752;-97.822;2022-07-30T13:34:59;3.60;;;1.50;;
58460;SDS011;45558;37.752;-97.822;2022-07-30T13:37:25;2.70;;;1.67;;
58460;SDS011;45558;37.752;-97.822;2022-07-30T13:39:51;3.60;;;1.75;;
58460;SDS011;45558;37.752;-97.822;2022-07-30T13:42:17;1.40;;;1.20;;
58460;SDS011;45558;37.752;-97.822;2022-07-30T13:44:44;1.38;;;1.25;;
58460;SDS011;45558;37.752;-97.822;2022-07-30T13:47:10;1.88;;;1.45;;
58460;SDS011;45558;37.752;-97.822;2022-07-30T13:49:36;1.00;;;0.90;;
58460;SDS011;45558;37.752;-97.822;2022-07-30T13:52:08;1.83;;;1.10;;
58460;SDS011;45558;37.752;-97.822;2022-07-30T13:54:35;1.05;;;0.95;;
58460;SDS011;45558;37.752;-97.822;2022-07-30T13:57:01;2.45;;;1.40;;
58460;SDS011;45558;37.752;-97.822;2022-07-30T13:59:28;3.45;;;1.38;;
58460;SDS011;45558;37.752;-97.822;2022-07-30T14:01:55;1.83;;;1.55;;
58460;SDS011;45558;37.752;-97.822;2022-07-30T14:04:21;2.15;;;1.45;;
58460;SDS011;45558;37.752;-97.822;2022-07-30T14:06:48;2.50;;;1.15;;
58460;SDS011;45558;37.752;-97.822;2022-07-30T14:09:14;2.60;;;1.50;;
58460;SDS011;45558;37.752;-97.822;2022-07-30T14:11:41;1.40;;;1.30;;
58460;SDS011;45558;37.752;-97.822;2022-07-30T14:14:07;1.80;;;1.45;;
58460;SDS011;45558;37.752;-97.822;2022-07-30T14:16:34;1.70;;;1.40;;
58460;SDS011;45558;37.752;-97.822;2022-07-30T14:19:00;2.70;;;2.03;;
58460;SDS011;45558;37.752;-97.822;2022-07-30T14:21:26;2.20;;;1.00;;
58460;SDS011;45558;37.752;-97.822;2022-07-30T14:23:52;1.52;;;1.13;;
58460;SDS011;45558;37.752;-97.822;2022-07-30T14:26:19;1.50;;;1.40;;
58460;SDS011;45558;37.752;-97.822;2022-07-30T14:28:45;1.58;;;1.48;;
58460;SDS011;45558;37.752;-97.822;2022-07-30T14:31:11;1.75;;;1.65;;
58460;SDS011;45558;37.752;-97.822;2022-07-30T14:33:38;2.33;;;1.70;;
58460;SDS011;45558;37.752;-97.822;2022-07-30T14:36:06;1.75;;;1.58;;
58460;SDS011;45558;37.752;-97.822;2022-07-30T14:38:34;3.33;;;1.42;;
58460;SDS011;45558;37.752;-97.822;2022-07-30T14:41:00;1.65;;;1.55;;
58460;SDS011;45558;37.752;-97.822;2022-07-30T14:43:26;2.00;;;1.75;;
58460;SDS011;45558;37.752;-97.822;2022-07-30T14:45:52;2.28;;;1.40;;
58460;SDS011;45558;37.752;-97.822;2022-07-30T14:48:18;2.15;;;1.95;;
58460;SDS011;45558;37.752;-97.822;2022-07-30T14:50:44;1.88;;;1.25;;
58460;SDS011;45558;37.752;-97.822;2022-07-30T14:53:10;5.55;;;2.20;;
58460;SDS011;45558;37.752;-97.822;2022-07-30T14:55:36;1.63;;;1.40;;
58460;SDS011;45558;37.752;-97.822;2022-07-30T14:58:01;2.13;;;1.95;;
58460;SDS011;45558;37.752;-97.822;2022-07-30T15:00:27;2.53;;;1.98;;
58460;SDS011;45558;37.752;-97.822;2022-07-30T15:02:54;3.63;;;2.58;;
58460;SDS011;45558;37.752;-97.822;2022-07-30T15:05:20;4.78;;;3.90;;
58460;SDS011;45558;37.752;-97.822;2022-07-30T15:07:46;3.58;;;2.60;;
58460;SDS011;45558;37.752;-97.822;2022-07-30T15:10:12;3.80;;;3.30;;
58460;SDS011;45558;37.752;-97.822;2022-07-30T15:12:37;3.53;;;2.28;;
58460;SDS011;45558;37.752;-97.822;2022-07-30T15:15:04;2.90;;;2.60;;
58460;SDS011;45558;37.752;-97.822;2022-07-30T15:20:52;4.07;;;2.60;;
58460;SDS011;45558;37.752;-97.822;2022-07-30T15:23:18;4.07;;;3.67;;
58460;SDS011;45558;37.752;-97.822;2022-07-30T15:25:45;5.50;;;2.88;;
58460;SDS011;45558;37.752;-97.822;2022-07-30T15:28:12;2.90;;;2.70;;
58460;SDS011;45558;37.752;-97.822;2022-07-30T15:30:38;5.10;;;3.78;;
58460;SDS011;45558;37.752;-97.822;2022-07-30T15:33:05;3.03;;;2.72;;
58460;SDS011;45558;37.752;-97.822;2022-07-30T15:35:31;3.05;;;2.65;;
58460;SDS011;45558;37.752;-97.822;2022-07-30T15:37:57;2.67;;;2.45;;
58460;SDS011;45558;37.752;-97.822;2022-07-30T15:40:25;4.38;;;2.70;;
58460;SDS011;45558;37.752;-97.822;2022-07-30T15:42:51;7.15;;;2.95;;
58460;SDS011;45558;37.752;-97.822;2022-07-30T15:45:18;7.35;;;3.90;;
58460;SDS011;45558;37.752;-97.822;2022-07-30T15:47:45;6.05;;;3.10;;